Time;durP1;ratioP1;P1;durP2;ratioP2;P2;SDS_P1;SDS_P2;PMS_P1;PMS_P2;Temp;Humidity;BMP_temperature;BMP_pressure;BME280_temperature;BME280_humidity;BME280_pressure;Samples;Min_cycle;Max_cycle;Signal;HPM_P1;HPM_P2
2023/12/18 00:01:10;;;;;;;2.65;1.50;;;20.60;37.90;;;;;;5064546;28;20513;-54
2023/12/18 00:03:36;;;;;;;2.72;1.58;;;20.70;37.90;;;;;;5066555;28;20031;-51
2023/12/18 00:06:02;;;;;;;2.70;1.75;;;20.60;37.80;;;;;;5056597;28;20112;-50
2023/12/18 00:08:28;;;;;;;3.35;1.63;;;20.60;37.80;;;;;;5059523;28;20036;-51
2023/12/18 00:10:54;;;;;;;3.08;1.88;;;20.60;37.80;;;;;;5061484;28;20085;-51
2023/12/18 00:13:20;;;;;;;4.63;1.55;;;20.60;37.80;;;;;;5061047;28;20036;-51
2023/12/18 00:15:46;;;;;;;3.10;1.58;;;20.60;37.90;;;;;;5062073;28;20028;-50
2023/12/18 00:18:11;;;;;;;3.25;1.77;;;20.60;37.90;;;;;;5062973;28;20032;-49
2023/12/18 00:20:37;;;;;;;2.92;1.60;;;20.60;37.90;;;;;;5064620;28;20020;-51
2023/12/18 00:23:03;;;;;;;2.65;1.50;;;20.60;37.90;;;;;;5062479;28;20021;-51
2023/12/18 00:25:29;;;;;;;3.40;1.60;;;20.60;37.90;;;;;;5067106;28;20020;-50
2023/12/18 00:27:55;;;;;;;3.17;1.80;;;20.60;37.90;;;;;;5061585;28;20021;-54
2023/12/18 00:30:20;;;;;;;3.35;1.85;;;20.60;37.90;;;;;;5062329;28;20111;-53
2023/12/18 00:32:46;;;;;;;2.70;1.80;;;20.60;38.00;;;;;;5050106;28;20096;-50
2023/12/18 00:35:12;;;;;;;1.83;1.38;;;20.60;38.00;;;;;;5058410;28;20025;-52
2023/12/18 00:37:38;;;;;;;1.92;1.48;;;20.60;37.90;;;;;;5060450;28;20072;-49
2023/12/18 00:40:04;;;;;;;3.30;1.95;;;20.60;37.90;;;;;;5064761;28;20356;-49
2023/12/18 00:42:30;;;;;;;3.33;1.45;;;20.50;37.90;;;;;;5060988;28;20090;-51
2023/12/18 00:44:55;;;;;;;3.58;2.00;;;20.60;37.90;;;;;;5064195;28;20029;-51
2023/12/18 00:47:21;;;;;;;2.85;1.40;;;20.50;37.90;;;;;;5068485;28;20037;-52
2023/12/18 00:49:48;;;;;;;2.30;1.67;;;20.50;37.90;;;;;;5067164;28;20052;-52
2023/12/18 00:52:14;;;;;;;3.65;1.48;;;20.60;37.90;;;;;;5044797;28;20043;-54
2023/12/18 00:54:40;;;;;;;2.42;1.70;;;20.50;37.90;;;;;;5068010;28;20459;-53
2023/12/18 00:57:05;;;;;;;2.28;1.65;;;20.50;37.90;;;;;;5065328;28;20037;-53
2023/12/18 00:59:31;;;;;;;3.00;1.70;;;20.50;37.90;;;;;;5064869;28;20071;-47
2023/12/18 01:01:57;;;;;;;3.17;1.38;;;20.50;37.90;;;;;;5065273;28;20028;-53
2023/12/18 01:04:23;;;;;;;2.47;1.45;;;20.50;37.90;;;;;;5066100;28;20021;-53
2023/12/18 01:06:48;;;;;;;2.88;1.60;;;20.50;37.90;;;;;;5064907;28;20047;-49
2023/12/18 01:09:14;;;;;;;2.60;1.52;;;20.50;37.90;;;;;;5062894;28;20431;-50
2023/12/18 01:11:40;;;;;;;3.30;1.63;;;20.50;38.00;;;;;;5067507;28;20336;-53
2023/12/18 01:14:07;;;;;;;3.20;2.10;;;20.50;37.90;;;;;;5070675;28;20081;-54
2023/12/18 01:16:33;;;;;;;2.45;1.50;;;20.50;38.00;;;;;;5065027;28;20044;-51
2023/12/18 01:18:58;;;;;;;2.13;1.27;;;20.40;37.90;;;;;;5061741;28;20021;-51
2023/12/18 01:21:24;;;;;;;2.00;1.40;;;20.50;38.00;;;;;;5062825;28;20066;-53
2023/12/18 01:23:50;;;;;;;1.70;1.30;;;20.40;37.90;;;;;;5064991;28;20351;-52
2023/12/18 01:26:16;;;;;;;2.45;1.60;;;20.50;38.00;;;;;;5062641;28;20028;-51
2023/12/18 01:28:43;;;;;;;2.53;1.60;;;20.40;38.00;;;;;;5066812;28;20061;-49
2023/12/18 01:31:08;;;;;;;2.90;1.42;;;20.40;38.00;;;;;;5068642;28;20031;-49
2023/12/18 01:33:35;;;;;;;2.25;1.27;;;20.40;38.00;;;;;;5067445;28;20033;-56
2023/12/18 01:36:00;;;;;;;2.90;1.63;;;20.40;38.00;;;;;;5061517;28;20063;-46
2023/12/18 01:38:26;;;;;;;2.33;1.52;;;20.40;38.00;;;;;;5066194;28;20029;-51
2023/12/18 01:40:52;;;;;;;3.13;1.67;;;20.40;38.00;;;;;;5065273;28;20047;-53
2023/12/18 01:43:27;;;;;;;4.13;1.85;;;20.40;38.00;;;;;;5063113;28;20100;-55
2023/12/18 01:45:58;;;;;;;2.15;1.35;;;20.40;38.00;;;;;;5062168;28;20096;-52
2023/12/18 01:48:25;;;;;;;3.08;1.58;;;20.40;38.10;;;;;;5062889;28;20371;-55
2023/12/18 01:50:54;;;;;;;2.53;1.70;;;20.40;38.10;;;;;;5062009;28;20020;-55
2023/12/18 01:53:25;;;;;;;2.08;1.38;;;20.40;38.10;;;;;;5062890;28;20083;-56
2023/12/18 01:55:51;;;;;;;3.03;1.80;;;20.40;38.10;;;;;;5064765;28;20056;-54
2023/12/18 01:58:18;;;;;;;2.63;1.65;;;20.40;38.10;;;;;;5060937;28;20064;-56
2023/12/18 02:00:44;;;;;;;3.45;1.70;;;20.40;38.10;;;;;;5068770;28;20037;-56
2023/12/18 02:03:10;;;;;;;2.85;1.33;;;20.40;38.20;;;;;;5046110;28;20039;-56
2023/12/18 02:05:37;;;;;;;3.20;1.80;;;20.30;38.10;;;;;;5062522;28;20359;-50
2023/12/18 02:08:04;;;;;;;2.83;1.40;;;20.40;38.80;;;;;;5058901;28;20447;-54
2023/12/18 02:10:31;;;;;;;2.58;1.45;;;20.30;38.20;;;;;;5063929;28;20029;-51
2023/12/18 02:12:57;;;;;;;3.25;1.63;;;20.30;38.20;;;;;;5047744;28;20037;-54
2023/12/18 02:15:23;;;;;;;2.33;1.50;;;20.30;38.20;;;;;;5032245;28;20101;-55
2023/12/18 02:17:48;;;;;;;4.13;1.83;;;20.30;38.30;;;;;;5061544;28;20094;-54
2023/12/18 02:20:14;;;;;;;3.10;1.70;;;20.40;38.30;;;;;;5064197;28;20024;-51
2023/12/18 02:22:46;;;;;;;2.90;1.52;;;20.30;38.30;;;;;;5065370;28;20028;-49
2023/12/18 02:25:12;;;;;;;2.25;1.63;;;20.30;38.30;;;;;;5067791;28;20025;-47
2023/12/18 02:27:38;;;;;;;2.05;1.35;;;20.30;38.30;;;;;;5062740;28;20021;-49
2023/12/18 02:30:05;;;;;;;2.78;1.70;;;20.30;38.30;;;;;;5062068;28;20359;-53
2023/12/18 02:32:31;;;;;;;3.03;1.55;;;20.30;38.30;;;;;;5065072;28;20422;-47
2023/12/18 02:34:57;;;;;;;2.70;1.45;;;20.30;38.30;;;;;;5063649;28;20029;-51
2023/12/18 02:37:24;;;;;;;2.67;1.60;;;20.30;38.30;;;;;;5065073;28;20052;-54
2023/12/18 02:39:50;;;;;;;3.08;1.60;;;20.30;38.30;;;;;;5065781;28;20112;-49
2023/12/18 02:42:15;;;;;;;2.80;1.30;;;20.30;38.40;;;;;;5051944;28;20151;-49
2023/12/18 02:44:41;;;;;;;1.55;1.13;;;20.30;38.40;;;;;;5043775;28;20053;-51
2023/12/18 02:47:07;;;;;;;2.45;1.50;;;20.30;38.40;;;;;;5060476;28;20082;-53
2023/12/18 02:49:33;;;;;;;3.15;1.27;;;20.30;38.40;;;;;;5064972;28;20037;-49
2023/12/18 02:51:58;;;;;;;2.35;1.40;;;20.30;39.00;;;;;;5048631;28;20025;-50
2023/12/18 02:54:24;;;;;;;2.80;1.58;;;20.30;38.40;;;;;;5062601;28;20111;-52
2023/12/18 02:56:50;;;;;;;2.65;1.40;;;20.30;38.40;;;;;;5063629;28;20328;-51
2023/12/18 02:59:15;;;;;;;2.10;1.30;;;20.30;38.40;;;;;;5067552;28;20039;-48
2023/12/18 03:01:41;;;;;;;4.03;1.63;;;20.30;38.40;;;;;;5060938;28;20328;-53
2023/12/18 03:04:07;;;;;;;1.90;1.30;;;20.20;38.40;;;;;;5058754;28;20025;-48
2023/12/18 03:06:33;;;;;;;3.10;1.80;;;20.30;38.50;;;;;;5061545;28;20032;-46
2023/12/18 03:08:58;;;;;;;2.65;1.52;;;20.20;38.40;;;;;;5060966;28;20025;-46
2023/12/18 03:11:24;;;;;;;2.88;1.45;;;20.20;38.50;;;;;;5068909;28;20093;-47
2023/12/18 03:13:50;;;;;;;4.25;1.90;;;20.20;38.50;;;;;;5064982;28;20436;-55
2023/12/18 03:16:15;;;;;;;2.08;1.50;;;20.20;38.50;;;;;;5059936;28;20037;-49
2023/12/18 03:18:41;;;;;;;4.75;1.98;;;20.30;38.60;;;;;;5060468;28;20031;-51
2023/12/18 03:25:03;;;;;;;4.00;1.80;;;20.20;38.60;;;;;;5069363;28;20032;-51
2023/12/18 03:27:29;;;;;;;2.40;1.35;;;20.20;38.60;;;;;;5074715;28;20417;-51
2023/12/18 03:29:54;;;;;;;3.40;1.73;;;20.20;38.60;;;;;;5059033;28;20108;-53
2023/12/18 03:32:20;;;;;;;2.25;1.42;;;20.20;38.70;;;;;;5055145;28;20033;-47
2023/12/18 03:34:46;;;;;;;2.55;1.40;;;20.20;39.30;;;;;;5058977;28;20340;-52
2023/12/18 03:37:12;;;;;;;3.67;1.80;;;20.20;38.80;;;;;;5075542;28;20535;-55
2023/12/18 03:39:38;;;;;;;3.42;1.35;;;20.20;38.70;;;;;;5061222;28;20059;-55
2023/12/18 03:42:04;;;;;;;2.13;1.20;;;20.20;38.70;;;;;;5055038;28;20029;-55
2023/12/18 03:44:30;;;;;;;2.20;1.60;;;20.20;38.80;;;;;;5055064;28;20029;-53
2023/12/18 03:46:57;;;;;;;2.45;1.27;;;20.20;38.80;;;;;;5054889;28;20029;-51
2023/12/18 03:49:23;;;;;;;2.80;1.75;;;20.20;38.80;;;;;;5055147;28;20029;-55
2023/12/18 03:51:49;;;;;;;3.65;1.45;;;20.20;38.80;;;;;;5054839;28;20047;-51
2023/12/18 03:54:15;;;;;;;2.10;1.38;;;20.20;38.90;;;;;;5054953;28;20029;-54
2023/12/18 03:56:41;;;;;;;1.70;1.20;;;20.10;38.80;;;;;;5073545;28;20028;-52
2023/12/18 03:59:07;;;;;;;2.45;1.40;;;20.20;38.90;;;;;;5074477;28;20032;-52
2023/12/18 04:01:36;;;;;;;3.55;1.52;;;20.10;38.80;;;;;;5071921;28;20118;-55
2023/12/18 04:04:02;;;;;;;1.63;1.20;;;20.20;38.90;;;;;;5036924;28;20439;-55
2023/12/18 04:06:28;;;;;;;2.72;1.50;;;20.10;39.40;;;;;;5055215;28;20053;-48
2023/12/18 04:08:54;;;;;;;2.42;1.42;;;20.10;38.80;;;;;;5057627;28;20036;-50
2023/12/18 04:11:23;;;;;;;2.95;1.40;;;20.10;38.80;;;;;;5054607;28;20044;-48
2023/12/18 04:13:50;;;;;;;2.25;1.45;;;20.10;38.80;;;;;;5063008;28;20029;-47
2023/12/18 04:16:15;;;;;;;3.17;1.40;;;20.10;38.80;;;;;;5070397;28;20410;-50
2023/12/18 04:18:41;;;;;;;2.45;1.60;;;20.10;38.90;;;;;;5063708;28;20037;-47
2023/12/18 04:21:07;;;;;;;1.73;1.30;;;20.10;38.90;;;;;;5060756;28;20112;-51
2023/12/18 04:23:33;;;;;;;2.50;1.48;;;20.10;38.90;;;;;;5078637;28;20111;-51
2023/12/18 04:25:59;;;;;;;1.85;1.23;;;20.20;39.00;;;;;;5066420;28;20444;-51
2023/12/18 04:28:25;;;;;;;3.38;1.70;;;20.10;38.90;;;;;;5057956;28;20044;-51
2023/12/18 04:30:50;;;;;;;2.38;1.42;;;20.10;39.00;;;;;;5066239;28;20090;-51
2023/12/18 04:33:16;;;;;;;2.28;1.30;;;20.10;39.00;;;;;;5050992;28;20045;-53
2023/12/18 04:35:42;;;;;;;1.88;1.20;;;20.10;39.00;;;;;;5047640;28;20048;-51
2023/12/18 04:38:08;;;;;;;2.78;1.40;;;20.10;39.00;;;;;;5057332;28;20111;-48
2023/12/18 04:40:34;;;;;;;2.00;1.42;;;20.10;39.00;;;;;;5058085;28;20421;-45
2023/12/18 04:42:59;;;;;;;2.72;1.50;;;20.10;39.10;;;;;;5058388;28;20328;-49
2023/12/18 04:45:25;;;;;;;3.83;1.67;;;20.10;39.10;;;;;;5058192;28;20039;-50
2023/12/18 04:47:51;;;;;;;2.15;1.35;;;20.10;39.10;;;;;;5058242;28;20436;-50
2023/12/18 04:50:17;;;;;;;2.00;1.58;;;20.10;39.10;;;;;;5077492;28;20029;-50
2023/12/18 04:52:43;;;;;;;2.78;1.40;;;20.10;39.10;;;;;;5077515;28;20020;-44
2023/12/18 04:55:09;;;;;;;2.15;1.45;;;20.10;39.20;;;;;;5077072;28;20158;-48
2023/12/18 04:57:36;;;;;;;2.85;1.48;;;20.10;39.20;;;;;;5077300;28;20463;-51
2023/12/18 05:00:02;;;;;;;2.53;1.60;;;20.10;39.20;;;;;;5077646;28;20107;-46
2023/12/18 05:02:28;;;;;;;2.60;1.50;;;20.00;39.10;;;;;;5064914;28;20040;-50
2023/12/18 05:04:54;;;;;;;2.20;1.30;;;20.00;39.10;;;;;;5059317;28;20420;-50
2023/12/18 05:07:20;;;;;;;3.35;1.52;;;20.00;39.20;;;;;;5069185;28;20170;-47
2023/12/18 05:09:46;;;;;;;3.30;1.67;;;20.00;39.20;;;;;;5058813;28;20107;-53
2023/12/18 05:12:12;;;;;;;2.95;1.73;;;20.10;39.30;;;;;;5057583;28;20029;-47
2023/12/18 05:14:37;;;;;;;2.42;1.38;;;20.00;39.20;;;;;;5057494;28;20040;-50
2023/12/18 05:17:03;;;;;;;2.70;1.70;;;20.00;39.20;;;;;;5040636;28;20047;-54
2023/12/18 05:19:30;;;;;;;2.40;1.40;;;20.10;39.30;;;;;;5066109;28;20033;-53
2023/12/18 05:21:56;;;;;;;3.28;1.48;;;20.00;39.30;;;;;;5057091;28;20029;-50
2023/12/18 05:24:22;;;;;;;3.40;1.60;;;20.00;39.30;;;;;;5057107;28;20040;-53
2023/12/18 05:26:48;;;;;;;2.25;1.45;;;20.00;39.30;;;;;;5073396;28;20028;-52
2023/12/18 05:29:14;;;;;;;3.03;1.40;;;20.00;39.30;;;;;;5075493;28;20035;-51
2023/12/18 05:31:39;;;;;;;2.28;1.48;;;20.00;39.30;;;;;;5077994;28;20043;-52
2023/12/18 05:34:05;;;;;;;3.72;1.38;;;20.00;39.40;;;;;;5068112;28;20021;-56
2023/12/18 05:36:31;;;;;;;2.95;1.40;;;20.00;39.40;;;;;;5057113;28;20497;-55
2023/12/18 05:38:57;;;;;;;2.10;1.40;;;20.00;39.40;;;;;;5057415;28;20032;-56
2023/12/18 05:41:23;;;;;;;3.17;1.23;;;20.00;39.40;;;;;;5057287;28;20086;-55
2023/12/18 05:43:48;;;;;;;2.80;1.60;;;20.00;39.40;;;;;;5057064;28;20021;-51
2023/12/18 05:46:14;;;;;;;2.20;1.48;;;20.00;39.40;;;;;;5067459;28;20039;-48
2023/12/18 05:48:40;;;;;;;3.42;1.75;;;20.00;39.40;;;;;;5069363;28;20028;-56
2023/12/18 05:51:21;;;;;;;2.47;1.42;;;20.00;39.40;;;;;;5057189;28;20369;-48
2023/12/18 05:53:47;;;;;;;2.67;1.60;;;20.00;39.50;;;;;;5066876;28;20028;-52
2023/12/18 05:56:13;;;;;;;3.08;1.80;;;20.00;39.50;;;;;;5076348;28;20032;-54
2023/12/18 05:58:39;;;;;;;2.75;1.67;;;20.00;39.50;;;;;;5076674;28;20154;-50
2023/12/18 06:01:05;;;;;;;3.30;1.50;;;20.00;39.50;;;;;;5058404;28;20135;-49
2023/12/18 06:03:30;;;;;;;2.63;1.67;;;20.00;39.50;;;;;;5056171;28;20060;-55
2023/12/18 06:05:56;;;;;;;2.30;1.40;;;20.00;39.50;;;;;;5046931;28;20035;-48
2023/12/18 06:08:22;;;;;;;3.35;1.60;;;20.00;39.50;;;;;;5061092;28;20028;-48
2023/12/18 06:10:48;;;;;;;2.88;1.60;;;20.00;39.50;;;;;;5062029;28;20033;-51
2023/12/18 06:13:14;;;;;;;3.22;1.60;;;20.00;39.50;;;;;;5056529;28;20037;-51
2023/12/18 06:15:40;;;;;;;2.00;1.27;;;20.00;39.50;;;;;;5056651;28;20455;-49
2023/12/18 06:18:06;;;;;;;4.72;1.80;;;20.00;39.50;;;;;;5060576;28;20033;-51
2023/12/18 06:20:31;;;;;;;2.53;1.40;;;20.00;40.20;;;;;;5055783;28;20032;-48
2023/12/18 06:22:57;;;;;;;3.55;1.60;;;19.90;39.50;;;;;;5056395;28;20045;-49
2023/12/18 06:25:23;;;;;;;2.60;1.58;;;20.00;39.60;;;;;;5056307;28;20297;-51
2023/12/18 06:27:49;;;;;;;2.28;1.50;;;19.90;39.50;;;;;;5056691;28;20029;-49
2023/12/18 06:30:15;;;;;;;3.63;1.50;;;19.90;39.60;;;;;;5064168;28;20034;-52
2023/12/18 06:32:41;;;;;;;3.17;1.63;;;20.00;39.60;;;;;;5055747;28;20358;-49
2023/12/18 06:35:07;;;;;;;4.25;2.13;;;19.90;39.60;;;;;;5056015;28;20025;-51
2023/12/18 06:37:33;;;;;;;2.50;1.38;;;19.90;39.60;;;;;;5070416;28;20408;-50
2023/12/18 06:39:59;;;;;;;3.92;1.73;;;19.90;39.60;;;;;;5073975;28;20119;-48
2023/12/18 06:42:25;;;;;;;3.20;1.67;;;19.90;39.60;;;;;;5075316;28;20033;-49
2023/12/18 06:44:51;;;;;;;4.25;1.73;;;19.90;39.60;;;;;;5075629;28;20035;-49
2023/12/18 06:47:16;;;;;;;2.08;1.40;;;19.90;39.60;;;;;;5069647;28;20039;-52
2023/12/18 06:49:42;;;;;;;2.33;1.40;;;19.90;39.70;;;;;;5065389;28;20024;-50
2023/12/18 06:52:08;;;;;;;2.13;1.60;;;19.90;39.60;;;;;;5055791;28;20083;-49
2023/12/18 06:54:34;;;;;;;2.70;1.90;;;19.90;39.70;;;;;;5076412;28;20039;-49
2023/12/18 06:57:01;;;;;;;2.22;1.40;;;19.90;39.70;;;;;;5075463;28;20363;-50
2023/12/18 06:59:27;;;;;;;3.90;1.80;;;19.90;39.70;;;;;;5075102;28;20032;-51
2023/12/18 07:01:53;;;;;;;2.53;1.58;;;19.90;39.70;;;;;;5045275;28;20029;-52
2023/12/18 07:04:18;;;;;;;2.13;1.50;;;19.90;39.70;;;;;;5055282;28;20175;-53
2023/12/18 07:06:44;;;;;;;3.42;1.75;;;19.90;39.70;;;;;;5057234;28;20115;-50
2023/12/18 07:09:10;;;;;;;2.63;1.60;;;19.90;39.70;;;;;;5066055;28;20126;-54
2023/12/18 07:11:36;;;;;;;2.22;1.75;;;19.90;39.70;;;;;;5062743;28;20060;-54
2023/12/18 07:14:08;;;;;;;4.57;1.65;;;19.90;39.70;;;;;;5060298;28;20044;-51
2023/12/18 07:16:34;;;;;;;2.67;1.50;;;19.90;39.70;;;;;;5068377;28;20060;-53
2023/12/18 07:19:00;;;;;;;3.72;1.92;;;19.90;39.80;;;;;;5065729;28;20067;-50
2023/12/18 07:21:25;;;;;;;2.55;1.83;;;19.90;39.80;;;;;;5039483;28;20032;-52
2023/12/18 07:23:51;;;;;;;2.70;1.75;;;19.90;39.80;;;;;;5053302;28;20458;-48
2023/12/18 07:26:17;;;;;;;3.33;1.80;;;19.90;39.80;;;;;;5056749;28;20978;-52
2023/12/18 07:28:45;;;;;;;2.85;1.80;;;19.90;39.80;;;;;;5067338;28;20121;-47
2023/12/18 07:31:11;;;;;;;2.72;1.70;;;19.90;39.80;;;;;;5037330;28;20056;-50
2023/12/18 07:33:37;;;;;;;3.50;1.88;;;19.90;39.80;;;;;;5064102;28;20025;-51
2023/12/18 07:36:03;;;;;;;3.22;1.63;;;19.90;39.90;;;;;;5074946;28;20522;-50
2023/12/18 07:38:30;;;;;;;2.47;1.73;;;19.90;39.90;;;;;;5067776;28;20029;-54
2023/12/18 07:40:56;;;;;;;3.67;2.00;;;19.80;39.80;;;;;;5074903;28;20103;-53
2023/12/18 07:43:23;;;;;;;3.65;1.58;;;19.90;39.90;;;;;;5045263;28;20352;-55
2023/12/18 07:45:48;;;;;;;1.92;1.33;;;19.90;39.90;;;;;;5055254;28;20041;-51
2023/12/18 07:48:14;;;;;;;4.72;1.80;;;19.80;39.90;;;;;;5057155;28;20036;-52
2023/12/18 07:50:40;;;;;;;4.25;1.50;;;19.80;40.00;;;;;;5065350;28;20459;-55
2023/12/18 07:53:06;;;;;;;2.60;1.80;;;19.80;40.00;;;;;;5055969;28;20020;-55
2023/12/18 07:55:32;;;;;;;2.85;1.80;;;19.90;40.00;;;;;;5057811;28;20117;-53
2023/12/18 07:57:58;;;;;;;3.70;1.75;;;19.80;40.00;;;;;;5077503;28;20511;-52
2023/12/18 08:00:24;;;;;;;2.25;1.38;;;19.80;40.00;;;;;;5058575;28;20443;-51
2023/12/18 08:02:49;;;;;;;2.30;1.58;;;19.90;40.10;;;;;;5063310;28;20025;-50
2023/12/18 08:05:15;;;;;;;2.67;1.50;;;19.90;40.10;;;;;;5058603;28;20339;-48
2023/12/18 08:07:41;;;;;;;2.55;1.40;;;19.90;40.20;;;;;;5059516;28;20099;-51
2023/12/18 08:10:07;;;;;;;2.17;1.33;;;20.00;40.20;;;;;;5060209;28;20455;-48
2023/12/18 08:12:34;;;;;;;2.47;1.40;;;20.00;40.20;;;;;;5058610;28;20029;-50
2023/12/18 08:14:59;;;;;;;3.65;1.75;;;20.00;40.10;;;;;;5065036;28;20074;-50
2023/12/18 08:17:25;;;;;;;1.80;1.15;;;20.10;40.20;;;;;;5060606;28;20057;-51
2023/12/18 08:19:51;;;;;;;4.93;1.63;;;20.10;40.10;;;;;;5073468;28;20335;-52
2023/12/18 08:22:17;;;;;;;2.30;1.50;;;20.20;40.10;;;;;;5059447;28;20113;-52
2023/12/18 08:24:43;;;;;;;3.53;1.60;;;20.30;40.10;;;;;;5057986;28;20060;-48
2023/12/18 08:27:08;;;;;;;3.70;1.50;;;20.40;40.10;;;;;;5058353;28;20441;-53
2023/12/18 08:29:34;;;;;;;3.30;1.77;;;20.40;40.00;;;;;;5063778;28;20041;-53
2023/12/18 08:32:00;;;;;;;2.33;1.40;;;20.50;40.00;;;;;;5058538;28;20387;-55
2023/12/18 08:34:26;;;;;;;3.97;1.55;;;20.60;39.90;;;;;;5061702;28;20451;-48
2023/12/18 08:36:53;;;;;;;2.53;1.45;;;20.60;39.90;;;;;;5052088;28;20071;-51
2023/12/18 08:39:19;;;;;;;3.17;1.40;;;20.70;39.80;;;;;;5062069;28;20028;-51
2023/12/18 08:41:47;;;;;;;2.65;1.92;;;20.80;39.80;;;;;;5060154;28;20029;-51
2023/12/18 08:44:13;;;;;;;2.03;1.33;;;20.80;39.70;;;;;;5059687;28;20075;-52
2023/12/18 08:46:39;;;;;;;3.08;1.40;;;20.90;39.70;;;;;;5077965;28;20028;-51
2023/12/18 08:49:05;;;;;;;2.53;1.58;;;21.00;39.60;;;;;;5074300;28;20024;-50
2023/12/18 08:51:31;;;;;;;1.92;1.50;;;21.00;39.50;;;;;;5077782;28;20135;-50
2023/12/18 08:53:56;;;;;;;2.70;1.38;;;21.10;39.50;;;;;;5078182;28;20506;-51
2023/12/18 08:56:24;;;;;;;2.55;1.58;;;21.10;39.40;;;;;;5077383;28;20036;-55
2023/12/18 08:58:52;;;;;;;3.53;1.75;;;21.20;39.40;;;;;;5061819;28;20068;-53
2023/12/18 09:01:20;;;;;;;3.47;1.90;;;21.30;39.30;;;;;;5057791;28;20033;-53
2023/12/18 09:03:50;;;;;;;2.33;1.50;;;21.30;39.20;;;;;;5039055;28;20044;-55
2023/12/18 09:06:16;;;;;;;2.15;1.38;;;21.40;39.20;;;;;;5060910;28;20033;-53
2023/12/18 09:08:42;;;;;;;2.38;1.33;;;21.40;39.10;;;;;;5058153;28;20029;-51
2023/12/18 09:11:09;;;;;;;2.17;1.42;;;21.40;39.10;;;;;;5056984;28;20440;-48
2023/12/18 09:13:36;;;;;;;3.67;1.52;;;21.50;39.10;;;;;;5060997;28;20052;-52
2023/12/18 09:16:06;;;;;;;2.15;1.35;;;21.50;39.00;;;;;;5057240;28;20071;-47
2023/12/18 09:18:33;;;;;;;3.95;1.80;;;21.60;39.00;;;;;;5065412;28;20029;-55
2023/12/18 09:20:59;;;;;;;3.15;1.60;;;21.60;38.90;;;;;;5062014;28;20029;-51
2023/12/18 09:23:26;;;;;;;3.15;1.60;;;21.70;38.90;;;;;;5058984;28;20037;-47
2023/12/18 09:25:52;;;;;;;2.50;1.48;;;21.70;38.90;;;;;;5058220;28;20171;-50
2023/12/18 09:28:18;;;;;;;2.50;1.27;;;21.70;38.80;;;;;;5064186;28;20020;-51
2023/12/18 09:30:44;;;;;;;4.40;1.50;;;21.80;38.80;;;;;;5073855;28;20025;-53
2023/12/18 09:33:10;;;;;;;2.28;1.45;;;21.80;38.80;;;;;;5066020;28;20035;-47
2023/12/18 09:35:36;;;;;;;3.17;1.55;;;21.80;38.70;;;;;;5073280;28;20036;-45
2023/12/18 09:38:02;;;;;;;3.53;1.58;;;21.80;38.60;;;;;;5064631;28;20055;-50
2023/12/18 09:40:28;;;;;;;2.15;1.30;;;21.80;38.60;;;;;;5055311;28;20372;-52
2023/12/18 09:42:54;;;;;;;2.75;1.42;;;21.80;38.50;;;;;;5068269;28;20032;-54
2023/12/18 09:45:25;;;;;;;3.67;1.83;;;21.90;38.50;;;;;;5067975;28;20418;-54
2023/12/18 09:47:54;;;;;;;2.45;1.40;;;21.90;38.50;;;;;;5054632;28;20020;-51
2023/12/18 09:50:20;;;;;;;2.45;1.52;;;21.90;38.50;;;;;;5070580;28;20332;-51
2023/12/18 09:53:00;;;;;;;2.95;1.50;;;21.90;38.50;;;;;;5063971;28;20025;-53
2023/12/18 09:55:27;;;;;;;2.53;1.80;;;21.90;38.40;;;;;;5055580;28;20025;-51
2023/12/18 09:57:58;;;;;;;2.25;1.50;;;21.80;38.40;;;;;;5049993;28;20056;-52
2023/12/18 10:00:25;;;;;;;4.50;2.00;;;21.80;38.40;;;;;;5059044;28;20033;-52
2023/12/18 10:02:52;;;;;;;2.40;1.48;;;21.80;38.40;;;;;;5072880;28;20062;-53
2023/12/18 10:05:18;;;;;;;2.10;1.52;;;21.80;38.40;;;;;;5061156;28;20431;-53
2023/12/18 10:07:45;;;;;;;3.20;1.77;;;21.80;38.40;;;;;;5062128;28;20033;-51
2023/12/18 10:10:10;;;;;;;3.20;2.13;;;21.80;38.40;;;;;;5067222;28;20455;-50
2023/12/18 10:12:38;;;;;;;1.90;1.33;;;21.80;38.40;;;;;;5065087;28;20036;-51
2023/12/18 10:15:09;;;;;;;3.33;1.70;;;21.70;38.30;;;;;;5060373;28;20360;-53
2023/12/18 10:17:37;;;;;;;3.17;1.65;;;21.80;38.40;;;;;;5064358;28;20041;-49
2023/12/18 10:20:03;;;;;;;3.50;1.70;;;21.70;38.40;;;;;;5066561;28;20021;-49
2023/12/18 10:22:31;;;;;;;3.22;1.90;;;21.70;38.40;;;;;;5063900;28;20028;-52
2023/12/18 10:24:59;;;;;;;2.67;1.50;;;21.70;38.40;;;;;;5073549;28;20443;-50
2023/12/18 10:27:25;;;;;;;3.25;1.80;;;21.70;38.40;;;;;;5058368;28;20111;-53
2023/12/18 10:29:54;;;;;;;2.95;1.80;;;21.70;38.40;;;;;;5060118;28;20113;-52
2023/12/18 10:32:22;;;;;;;3.67;1.63;;;21.70;38.40;;;;;;5061589;28;20021;-50
2023/12/18 10:34:50;;;;;;;2.10;1.60;;;21.70;38.40;;;;;;5056981;28;20035;-51
2023/12/18 10:37:19;;;;;;;2.97;1.70;;;21.70;38.50;;;;;;5066493;28;20063;-48
2023/12/18 10:39:49;;;;;;;4.65;2.15;;;21.60;38.40;;;;;;5056709;28;20151;-49
2023/12/18 10:42:33;;;;;;;4.40;1.90;;;21.70;38.50;;;;;;5056448;28;20029;-55
2023/12/18 10:45:01;;;;;;;3.13;1.70;;;21.60;38.40;;;;;;5073869;28;20103;-51
2023/12/18 10:47:28;;;;;;;3.38;2.00;;;21.60;38.50;;;;;;5069110;28;20086;-52
2023/12/18 10:49:57;;;;;;;2.63;1.45;;;21.60;38.50;;;;;;5061848;28;20464;-54
2023/12/18 10:52:23;;;;;;;2.85;1.67;;;21.60;38.50;;;;;;5070128;28;20099;-54
2023/12/18 10:54:51;;;;;;;2.78;1.55;;;21.60;38.50;;;;;;5069539;28;20040;-53
2023/12/18 10:57:20;;;;;;;2.55;1.50;;;21.60;38.60;;;;;;5056164;28;20352;-55
2023/12/18 10:59:50;;;;;;;2.25;1.58;;;21.50;38.50;;;;;;5071451;28;20104;-51
2023/12/18 11:02:17;;;;;;;2.63;1.70;;;21.50;38.50;;;;;;5071055;28;20099;-54
2023/12/18 11:04:47;;;;;;;3.92;1.80;;;21.50;38.50;;;;;;5065400;28;20033;-56
2023/12/18 11:07:17;;;;;;;2.55;1.60;;;21.50;38.50;;;;;;5065743;28;20021;-55
2023/12/18 11:09:49;;;;;;;2.08;1.50;;;21.50;38.50;;;;;;5057688;28;20451;-52
2023/12/18 11:12:17;;;;;;;2.60;1.30;;;21.50;38.50;;;;;;5054533;28;20359;-56
2023/12/18 11:15:00;;;;;;;3.00;1.63;;;21.50;38.60;;;;;;5061539;28;20029;-49
2023/12/18 11:17:42;;;;;;;3.30;1.73;;;21.50;38.50;;;;;;5057707;28;20033;-54
2023/12/18 11:20:40;;;;;;;2.13;1.60;;;21.50;38.50;;;;;;5060553;28;20025;-50
2023/12/18 11:23:06;;;;;;;3.17;1.50;;;21.50;38.60;;;;;;5071569;28;20391;-55
2023/12/18 11:25:37;;;;;;;2.75;1.70;;;21.50;38.60;;;;;;5037242;28;20025;-51
2023/12/18 11:28:05;;;;;;;3.60;1.77;;;21.50;38.60;;;;;;5066032;28;20021;-53
2023/12/18 11:30:32;;;;;;;3.20;1.80;;;21.50;38.60;;;;;;5065165;28;20025;-49
2023/12/18 11:33:09;;;;;;;2.70;1.40;;;21.40;38.60;;;;;;5065572;28;20049;-53
2023/12/18 11:35:36;;;;;;;3.30;1.90;;;21.40;38.60;;;;;;5054107;28;20029;-52
2023/12/18 11:38:12;;;;;;;3.33;1.80;;;21.40;38.60;;;;;;5055543;28;20048;-53
2023/12/18 11:40:42;;;;;;;3.22;1.88;;;21.40;38.60;;;;;;5054649;28;20347;-53
2023/12/18 11:43:13;;;;;;;2.95;1.77;;;21.40;38.60;;;;;;5036765;28;20075;-48
2023/12/18 11:45:43;;;;;;;2.25;1.55;;;21.40;38.60;;;;;;5054630;28;20051;-54
2023/12/18 11:48:17;;;;;;;2.03;1.52;;;21.40;38.70;;;;;;5054164;28;20142;-52
2023/12/18 11:50:43;;;;;;;2.05;1.83;;;21.40;38.70;;;;;;5067353;28;20030;-53
2023/12/18 11:53:30;;;;;;;2.42;1.65;;;21.40;38.70;;;;;;5062989;28;20029;-54
2023/12/18 11:55:56;;;;;;;2.35;1.50;;;21.40;38.70;;;;;;5057882;28;20448;-52
2023/12/18 11:58:26;;;;;;;2.78;1.80;;;21.40;38.80;;;;;;5053890;28;20033;-54
2023/12/18 12:00:52;;;;;;;4.00;1.80;;;21.40;38.80;;;;;;5053599;28;20105;-54
2023/12/18 12:03:19;;;;;;;1.85;1.33;;;21.30;38.80;;;;;;5054868;28;20016;-55
2023/12/18 12:05:46;;;;;;;5.55;2.22;;;21.30;38.80;;;;;;5063269;28;20043;-52
2023/12/18 12:08:12;;;;;;;3.63;1.60;;;21.30;38.80;;;;;;5058987;28;20359;-52
2023/12/18 12:10:46;;;;;;;2.13;1.52;;;21.30;38.80;;;;;;5064372;28;20032;-53
2023/12/18 12:13:23;;;;;;;2.67;1.80;;;21.30;38.80;;;;;;5072240;28;20024;-49
2023/12/18 12:15:55;;;;;;;2.65;1.70;;;21.30;38.90;;;;;;5065795;28;20122;-47
2023/12/18 12:18:25;;;;;;;3.30;1.65;;;21.30;38.90;;;;;;5039306;28;20527;-55
2023/12/18 12:20:51;;;;;;;4.15;1.80;;;21.30;38.90;;;;;;5053166;28;20068;-51
2023/12/18 12:23:17;;;;;;;4.30;1.95;;;21.30;38.90;;;;;;5054734;28;20024;-56
2023/12/18 12:25:46;;;;;;;3.03;1.85;;;21.30;38.90;;;;;;5068441;28;20033;-53
2023/12/18 12:28:14;;;;;;;2.53;1.45;;;21.30;38.90;;;;;;5067066;28;20102;-55
2023/12/18 12:30:41;;;;;;;3.38;1.75;;;21.20;38.90;;;;;;5055892;28;20049;-51
2023/12/18 12:33:07;;;;;;;2.65;1.63;;;21.30;38.90;;;;;;5064807;28;20114;-53
2023/12/18 12:35:33;;;;;;;2.90;1.30;;;21.30;39.00;;;;;;5016501;28;20052;-51
2023/12/18 12:38:02;;;;;;;3.25;1.75;;;21.30;39.10;;;;;;5046842;28;20072;-56
2023/12/18 12:40:42;;;;;;;3.28;1.58;;;21.30;39.30;;;;;;5040534;28;20108;-55
2023/12/18 12:43:10;;;;;;;2.55;1.80;;;21.30;39.50;;;;;;5040148;28;20036;-46
2023/12/18 12:45:37;;;;;;;2.28;1.45;;;21.30;39.50;;;;;;5043517;28;20068;-50
2023/12/18 12:48:12;;;;;;;2.58;1.80;;;21.40;39.50;;;;;;5040206;28;20029;-51
2023/12/18 12:50:38;;;;;;;;;;;21.40;39.50;;;;;;5040951;28;20112;-48